Time;durP1;ratioP1;P1;durP2;ratioP2;P2;SDS_P1;SDS_P2;PMS_P1;PMS_P2;Temp;Humidity;BMP_temperature;BMP_pressure;BME280_temperature;BME280_humidity;BME280_pressure;Samples;Min_cycle;Max_cycle;Signal;HPM_P1;HPM_P2
2023/04/29 00:00:20;;;;;;;9.45;2.05;;;;;;;;;;5012299;28;20049;-61
2023/04/29 00:02:47;;;;;;;3.80;1.42;;;;;;;;;;5011876;28;21400;-60
2023/04/29 00:05:14;;;;;;;6.32;1.48;;;;;;;;;;5010822;28;20554;-58
2023/04/29 00:07:41;;;;;;;8.20;2.30;;;;;;;;;;5011064;28;20056;-57
2023/04/29 00:10:08;;;;;;;4.78;1.80;;;;;;;;;;5015221;28;20550;-57
2023/04/29 00:12:35;;;;;;;6.10;1.80;;;;;;;;;;5013218;28;20367;-56
2023/04/29 00:15:03;;;;;;;6.93;1.55;;;;;;;;;;5013260;28;20084;-57
2023/04/29 00:17:30;;;;;;;7.00;1.55;;;;;;;;;;5012384;28;20698;-62
2023/04/29 00:19:56;;;;;;;7.93;1.95;;;;;;;;;;5012106;28;20578;-57
2023/04/29 00:22:23;;;;;;;4.88;1.60;;;;;;;;;;5008736;28;20065;-55
2023/04/29 00:24:50;;;;;;;10.23;1.77;;;;;;;;;;5010273;28;20041;-56
2023/04/29 00:27:17;;;;;;;7.20;1.98;;;;;;;;;;5026637;28;20037;-58
2023/04/29 00:29:44;;;;;;;4.82;1.70;;;;;;;;;;5011325;28;20129;-58
2023/04/29 00:32:11;;;;;;;5.72;1.20;;;;;;;;;;5009232;28;20547;-60
2023/04/29 00:34:37;;;;;;;8.27;1.88;;;;;;;;;;5010783;28;20111;-59
2023/04/29 00:37:04;;;;;;;6.28;1.30;;;;;;;;;;5010772;28;20279;-57
2023/04/29 00:39:30;;;;;;;13.50;1.65;;;;;;;;;;5010807;28;20129;-60
2023/04/29 00:41:57;;;;;;;6.28;1.10;;;;;;;;;;5024703;28;20038;-57
2023/04/29 00:44:24;;;;;;;6.13;2.00;;;;;;;;;;5009814;28;20048;-57
2023/04/29 00:46:51;;;;;;;6.57;2.05;;;;;;;;;;5010344;28;20134;-58
2023/04/29 00:49:17;;;;;;;7.68;2.40;;;;;;;;;;5012401;28;20061;-58
2023/04/29 00:51:44;;;;;;;7.18;1.92;;;;;;;;;;5010596;28;20037;-57
2023/04/29 00:54:11;;;;;;;11.15;2.00;;;;;;;;;;5010605;28;20115;-60
2023/04/29 00:56:42;;;;;;;12.13;2.40;;;;;;;;;;5009940;28;20045;-59
2023/04/29 00:59:11;;;;;;;5.68;1.55;;;;;;;;;;5010477;28;20686;-61
2023/04/29 01:01:38;;;;;;;6.30;2.10;;;;;;;;;;5009925;28;20029;-57
2023/04/29 01:04:06;;;;;;;12.77;3.92;;;;;;;;;;5024308;28;21241;-60
2023/04/29 01:06:46;;;;;;;10.10;2.28;;;;;;;;;;5027111;28;20096;-64
2023/04/29 01:09:21;;;;;;;6.63;1.80;;;;;;;;;;5026472;28;20045;-65
2023/04/29 01:12:17;;;;;;;16.88;4.00;;;;;;;;;;5009083;28;20042;-62
2023/04/29 01:14:46;;;;;;;15.00;1.90;;;;;;;;;;5004682;28;20048;-64
2023/04/29 01:17:18;;;;;;;11.32;1.90;;;;;;;;;;5008214;28;20110;-62
2023/04/29 01:19:49;;;;;;;5.95;1.92;;;;;;;;;;5023742;28;20405;-62
2023/04/29 01:22:20;;;;;;;5.43;1.63;;;;;;;;;;5023473;28;20164;-64
2023/04/29 01:24:48;;;;;;;6.63;2.05;;;;;;;;;;5022065;28;20157;-65
2023/04/29 01:27:33;;;;;;;5.78;1.85;;;;;;;;;;5009462;28;20066;-63
2023/04/29 01:30:02;;;;;;;6.18;2.08;;;;;;;;;;5007711;28;20073;-61
2023/04/29 01:32:47;;;;;;;8.13;3.15;;;;;;;;;;5009895;28;20048;-61
2023/04/29 01:35:15;;;;;;;9.05;2.00;;;;;;;;;;5009437;28;20046;-65
2023/04/29 01:37:49;;;;;;;5.65;1.38;;;;;;;;;;5024311;28;20092;-64
2023/04/29 01:40:34;;;;;;;5.20;1.13;;;;;;;;;;5010055;28;20052;-62
2023/04/29 01:43:03;;;;;;;5.80;1.20;;;;;;;;;;5021927;28;20061;-65
2023/04/29 01:45:31;;;;;;;4.22;1.10;;;;;;;;;;5007802;28;20033;-62
2023/04/29 01:47:59;;;;;;;4.00;1.25;;;;;;;;;;5024252;28;20041;-64
2023/04/29 01:50:25;;;;;;;5.57;1.60;;;;;;;;;;5006353;28;20049;-64
2023/04/29 01:52:52;;;;;;;7.60;2.08;;;;;;;;;;5007375;28;20037;-62
2023/04/29 01:55:19;;;;;;;5.28;1.40;;;;;;;;;;5022691;28;20167;-65
2023/04/29 01:57:46;;;;;;;5.75;1.30;;;;;;;;;;5024067;28;20040;-64
2023/04/29 02:00:12;;;;;;;7.47;1.45;;;;;;;;;;5007999;28;20042;-66
2023/04/29 02:02:39;;;;;;;6.55;1.45;;;;;;;;;;5023513;28;20042;-64
2023/04/29 02:05:06;;;;;;;3.92;1.10;;;;;;;;;;5021733;28;20052;-65
2023/04/29 02:07:33;;;;;;;5.68;1.60;;;;;;;;;;5007519;28;20101;-59
2023/04/29 02:09:59;;;;;;;4.03;1.20;;;;;;;;;;5009854;28;20125;-62
2023/04/29 02:12:26;;;;;;;9.27;1.52;;;;;;;;;;5005547;28;20458;-57
2023/04/29 02:14:54;;;;;;;7.07;1.25;;;;;;;;;;5007255;28;20070;-58
2023/04/29 02:17:21;;;;;;;5.78;1.30;;;;;;;;;;5008011;28;20041;-59
2023/04/29 02:19:47;;;;;;;5.47;1.27;;;;;;;;;;5006996;28;20042;-57
2023/04/29 02:22:14;;;;;;;3.65;1.10;;;;;;;;;;5007880;28;20068;-60
2023/04/29 02:24:41;;;;;;;7.18;1.30;;;;;;;;;;5007516;28;20045;-60
2023/04/29 02:27:07;;;;;;;4.63;1.50;;;;;;;;;;5008240;28;20060;-57
2023/04/29 02:29:34;;;;;;;5.45;1.40;;;;;;;;;;5006418;28;20093;-58
2023/04/29 02:32:00;;;;;;;10.27;1.50;;;;;;;;;;5008294;28;20045;-57
2023/04/29 02:34:27;;;;;;;5.78;1.42;;;;;;;;;;5005900;28;20034;-58
2023/04/29 02:36:54;;;;;;;6.13;1.35;;;;;;;;;;5007129;28;20824;-58
2023/04/29 02:39:20;;;;;;;7.00;1.50;;;;;;;;;;5008478;28;20061;-58
2023/04/29 02:41:47;;;;;;;6.00;1.45;;;;;;;;;;4998798;28;20050;-57
2023/04/29 02:44:14;;;;;;;4.22;1.30;;;;;;;;;;5007678;28;20069;-57
2023/04/29 02:46:44;;;;;;;6.68;1.40;;;;;;;;;;5006912;28;20156;-58
2023/04/29 02:49:12;;;;;;;4.97;1.10;;;;;;;;;;5008086;28;20159;-59
2023/04/29 02:51:40;;;;;;;6.15;1.45;;;;;;;;;;5021489;28;20080;-55
2023/04/29 02:54:07;;;;;;;5.82;1.35;;;;;;;;;;5022837;28;20110;-56
2023/04/29 02:56:33;;;;;;;6.78;1.27;;;;;;;;;;5008648;28;20111;-58
2023/04/29 02:59:00;;;;;;;11.25;1.60;;;;;;;;;;5018762;28;20042;-57
2023/04/29 03:01:26;;;;;;;5.25;1.55;;;;;;;;;;5010001;28;20061;-58
2023/04/29 03:03:53;;;;;;;8.73;1.52;;;;;;;;;;5011162;28;20541;-60
2023/04/29 03:06:20;;;;;;;5.95;1.48;;;;;;;;;;5026468;28;20117;-59
2023/04/29 03:08:47;;;;;;;5.35;1.70;;;;;;;;;;5010783;28;20056;-58
2023/04/29 03:11:14;;;;;;;11.43;1.77;;;;;;;;;;5011276;28;20099;-60
2023/04/29 03:13:41;;;;;;;10.93;2.00;;;;;;;;;;5009102;28;20132;-58
2023/04/29 03:16:08;;;;;;;9.73;1.52;;;;;;;;;;5012301;28;20544;-58
2023/04/29 03:18:34;;;;;;;9.25;1.85;;;;;;;;;;5023651;28;20053;-60
2023/04/29 03:21:03;;;;;;;13.25;2.60;;;;;;;;;;5025176;28;20034;-58
2023/04/29 03:23:29;;;;;;;11.00;2.40;;;;;;;;;;5024691;28;20042;-62
2023/04/29 03:25:56;;;;;;;12.93;3.00;;;;;;;;;;5010532;28;20348;-58
2023/04/29 03:28:23;;;;;;;10.07;3.08;;;;;;;;;;5009286;28;20076;-58
2023/04/29 03:30:50;;;;;;;8.00;3.20;;;;;;;;;;5010762;28;20053;-58
2023/04/29 03:33:17;;;;;;;10.77;3.88;;;;;;;;;;5009930;28;20050;-56
2023/04/29 03:35:44;;;;;;;7.28;2.53;;;;;;;;;;5023602;28;20069;-60
2023/04/29 03:38:11;;;;;;;5.97;2.45;;;;;;;;;;5009642;28;20046;-58
2023/04/29 03:40:38;;;;;;;12.80;3.13;;;;;;;;;;5024339;28;20072;-60
2023/04/29 03:43:05;;;;;;;16.73;4.10;;;;;;;;;;5010082;28;20046;-58
2023/04/29 03:45:32;;;;;;;14.63;3.17;;;;;;;;;;5022429;28;20045;-60
2023/04/29 03:47:59;;;;;;;10.27;1.85;;;;;;;;;;5010171;28;20038;-61
2023/04/29 03:50:26;;;;;;;6.80;1.63;;;;;;;;;;5009712;28;20419;-58
2023/04/29 03:52:52;;;;;;;6.50;1.73;;;;;;;;;;5009774;28;20033;-57
2023/04/29 03:55:19;;;;;;;8.75;1.90;;;;;;;;;;5009096;28;20037;-61
2023/04/29 03:57:46;;;;;;;8.70;1.60;;;;;;;;;;5023466;28;20054;-58
2023/04/29 04:00:14;;;;;;;6.65;1.63;;;;;;;;;;5010037;28;20057;-60
2023/04/29 04:02:41;;;;;;;8.48;2.50;;;;;;;;;;5009177;28;20038;-58
2023/04/29 04:05:09;;;;;;;9.07;2.60;;;;;;;;;;5009230;28;20113;-61
2023/04/29 04:07:36;;;;;;;5.53;2.15;;;;;;;;;;5006705;28;20045;-58
2023/04/29 04:10:02;;;;;;;10.18;3.13;;;;;;;;;;5010517;28;20061;-57
2023/04/29 04:12:29;;;;;;;10.50;2.85;;;;;;;;;;5008047;28;20102;-59
2023/04/29 04:14:56;;;;;;;6.18;2.40;;;;;;;;;;5008682;28;20038;-59
2023/04/29 04:17:23;;;;;;;11.95;2.63;;;;;;;;;;5008169;28;20049;-58
2023/04/29 04:19:49;;;;;;;5.15;2.03;;;;;;;;;;5008457;28;20038;-58
2023/04/29 04:22:16;;;;;;;8.48;1.90;;;;;;;;;;5010357;28;20092;-60
2023/04/29 04:24:43;;;;;;;8.05;1.77;;;;;;;;;;5008669;28;20049;-61
2023/04/29 04:27:10;;;;;;;5.55;1.42;;;;;;;;;;5024285;28;20084;-58
2023/04/29 04:29:36;;;;;;;6.35;1.75;;;;;;;;;;5008232;28;20057;-68
2023/04/29 04:32:03;;;;;;;7.53;2.00;;;;;;;;;;5008178;28;20064;-59
2023/04/29 04:34:29;;;;;;;6.30;1.60;;;;;;;;;;5007427;28;20045;-58
2023/04/29 04:36:56;;;;;;;6.20;1.55;;;;;;;;;;5010120;28;20060;-58
2023/04/29 04:39:23;;;;;;;7.25;1.65;;;;;;;;;;5007781;28;20119;-58
2023/04/29 04:41:49;;;;;;;7.13;1.90;;;;;;;;;;5009167;28;20038;-55
2023/04/29 04:44:16;;;;;;;11.57;2.30;;;;;;;;;;5009946;28;20080;-57
2023/04/29 04:46:43;;;;;;;6.78;1.73;;;;;;;;;;5007869;28;20053;-56
2023/04/29 04:49:10;;;;;;;5.90;1.30;;;;;;;;;;5008260;28;20111;-55
2023/04/29 04:51:36;;;;;;;6.38;1.50;;;;;;;;;;5009090;28;20049;-57
2023/04/29 04:54:03;;;;;;;8.45;1.52;;;;;;;;;;5007164;28;20041;-57
2023/04/29 04:56:30;;;;;;;12.80;1.60;;;;;;;;;;5007918;28;20046;-57
2023/04/29 04:58:56;;;;;;;4.30;1.40;;;;;;;;;;5007796;28;20034;-58
2023/04/29 05:01:23;;;;;;;4.78;1.48;;;;;;;;;;5007703;28;20037;-59
2023/04/29 05:03:50;;;;;;;4.53;1.65;;;;;;;;;;5007131;28;20048;-57
2023/04/29 05:06:16;;;;;;;6.95;1.50;;;;;;;;;;5008148;28;20044;-58
2023/04/29 05:08:43;;;;;;;4.82;1.15;;;;;;;;;;5021844;28;20056;-58
2023/04/29 05:11:17;;;;;;;8.88;1.63;;;;;;;;;;5010446;28;20061;-56
2023/04/29 05:13:44;;;;;;;5.15;1.65;;;;;;;;;;5006595;28;20048;-54
2023/04/29 05:16:10;;;;;;;5.55;1.45;;;;;;;;;;5007699;28;20614;-56
2023/04/29 05:18:37;;;;;;;4.97;1.25;;;;;;;;;;5006112;28;20102;-59
2023/04/29 05:21:04;;;;;;;4.38;1.35;;;;;;;;;;5008203;28;20034;-54
2023/04/29 05:23:31;;;;;;;6.80;1.35;;;;;;;;;;5006737;28;20041;-57
2023/04/29 05:25:57;;;;;;;6.97;1.73;;;;;;;;;;5008078;28;20076;-61
2023/04/29 05:28:24;;;;;;;9.02;1.40;;;;;;;;;;5006887;28;20045;-58
2023/04/29 05:30:51;;;;;;;5.38;1.50;;;;;;;;;;5007360;28;20049;-57
2023/04/29 05:33:18;;;;;;;9.80;1.70;;;;;;;;;;5023018;28;20096;-59
2023/04/29 05:35:44;;;;;;;5.72;1.27;;;;;;;;;;5006736;28;20120;-57
2023/04/29 05:38:11;;;;;;;6.43;1.50;;;;;;;;;;5021969;28;20034;-56
2023/04/29 05:40:38;;;;;;;7.32;1.00;;;;;;;;;;5006534;28;20049;-57
2023/04/29 05:43:05;;;;;;;12.43;1.60;;;;;;;;;;5007927;28;20053;-56
2023/04/29 05:45:31;;;;;;;8.73;1.52;;;;;;;;;;5005733;28;20045;-54
2023/04/29 05:47:58;;;;;;;6.68;1.40;;;;;;;;;;5007987;28;20114;-57
2023/04/29 05:50:25;;;;;;;7.35;1.38;;;;;;;;;;5006695;28;20051;-57
2023/04/29 05:52:53;;;;;;;9.02;1.10;;;;;;;;;;5008504;28;20100;-58
2023/04/29 05:55:20;;;;;;;7.78;1.65;;;;;;;;;;5007406;28;20052;-57
2023/04/29 05:57:46;;;;;;;5.78;1.13;;;;;;;;;;5007470;28;20044;-58
2023/04/29 06:00:13;;;;;;;11.20;1.17;;;;;;;;;;5008851;28;20065;-57
2023/04/29 06:02:41;;;;;;;4.47;1.20;;;;;;;;;;5006141;28;20518;-57
2023/04/29 06:05:09;;;;;;;7.43;1.35;;;;;;;;;;5008531;28;20511;-57
2023/04/29 06:07:35;;;;;;;7.85;1.50;;;;;;;;;;5022497;28;20516;-60
2023/04/29 06:10:02;;;;;;;3.40;1.25;;;;;;;;;;5008613;28;20045;-56
2023/04/29 06:12:29;;;;;;;6.75;1.45;;;;;;;;;;5006011;28;20029;-56
2023/04/29 06:14:56;;;;;;;6.80;1.40;;;;;;;;;;5022775;28;20088;-59
2023/04/29 06:17:23;;;;;;;7.70;2.13;;;;;;;;;;5006534;28;20040;-60
2023/04/29 06:19:50;;;;;;;6.75;2.10;;;;;;;;;;5008129;28;20041;-57
2023/04/29 06:22:17;;;;;;;5.85;1.88;;;;;;;;;;5007814;28;20872;-55
2023/04/29 06:24:44;;;;;;;9.35;1.58;;;;;;;;;;5008638;28;20124;-56
2023/04/29 06:27:10;;;;;;;6.18;1.40;;;;;;;;;;5007610;28;20034;-57
2023/04/29 06:29:37;;;;;;;7.80;1.27;;;;;;;;;;5009259;28;20041;-60
2023/04/29 06:32:04;;;;;;;7.35;1.45;;;;;;;;;;5015881;28;20048;-58
2023/04/29 06:34:31;;;;;;;7.10;1.25;;;;;;;;;;5012908;28;20049;-56
2023/04/29 06:36:57;;;;;;;6.05;1.55;;;;;;;;;;5012998;28;20540;-58
2023/04/29 06:39:24;;;;;;;4.43;1.48;;;;;;;;;;5011414;28;20515;-59
2023/04/29 06:41:51;;;;;;;6.53;1.42;;;;;;;;;;5012198;28;20049;-56
2023/04/29 06:44:18;;;;;;;6.88;1.35;;;;;;;;;;5013579;28;20040;-60
2023/04/29 06:46:45;;;;;;;6.18;1.40;;;;;;;;;;5011083;28;21027;-59
2023/04/29 06:49:12;;;;;;;5.32;1.30;;;;;;;;;;5010081;28;20078;-60
2023/04/29 06:51:38;;;;;;;3.10;0.88;;;;;;;;;;5011744;28;20406;-57
2023/04/29 06:54:05;;;;;;;7.40;1.35;;;;;;;;;;5010832;28;20063;-57
2023/04/29 06:56:32;;;;;;;13.13;1.75;;;;;;;;;;5012202;28;20042;-58
2023/04/29 06:58:58;;;;;;;12.45;4.50;;;;;;;;;;5011845;28;20049;-55
2023/04/29 07:01:25;;;;;;;9.13;3.42;;;;;;;;;;5011069;28;20042;-56
2023/04/29 07:03:52;;;;;;;7.57;2.55;;;;;;;;;;5013536;28;20598;-63
2023/04/29 07:06:18;;;;;;;10.30;2.80;;;;;;;;;;5013375;28;20115;-59
2023/04/29 07:08:45;;;;;;;7.90;2.10;;;;;;;;;;5027121;28;20506;-58
2023/04/29 07:11:12;;;;;;;10.82;2.20;;;;;;;;;;5014486;28;20056;-57
2023/04/29 07:13:38;;;;;;;6.15;2.00;;;;;;;;;;5011484;28;20491;-57
2023/04/29 07:16:05;;;;;;;7.22;1.70;;;;;;;;;;5012198;28;20137;-55
2023/04/29 07:18:32;;;;;;;5.68;1.88;;;;;;;;;;5008990;28;20049;-58
2023/04/29 07:21:02;;;;;;;9.00;2.17;;;;;;;;;;5010465;28;20037;-55
2023/04/29 07:23:28;;;;;;;8.68;1.90;;;;;;;;;;5010293;28;20037;-56
2023/04/29 07:25:55;;;;;;;8.93;2.03;;;;;;;;;;5010972;28;20048;-57
2023/04/29 07:28:22;;;;;;;5.90;2.10;;;;;;;;;;5009641;28;20281;-59
2023/04/29 07:30:48;;;;;;;7.07;2.20;;;;;;;;;;5010932;28;20050;-58
2023/04/29 07:33:15;;;;;;;7.35;2.00;;;;;;;;;;5009281;28;20072;-55
2023/04/29 07:35:43;;;;;;;6.43;2.20;;;;;;;;;;5008730;28;20120;-57
2023/04/29 07:38:10;;;;;;;10.18;2.15;;;;;;;;;;5025199;28;20367;-57
2023/04/29 07:40:36;;;;;;;9.05;2.70;;;;;;;;;;5024036;28;20058;-57
2023/04/29 07:43:05;;;;;;;7.18;2.10;;;;;;;;;;5009235;28;20081;-62
2023/04/29 07:45:32;;;;;;;9.68;2.45;;;;;;;;;;5007920;28;20111;-59
2023/04/29 07:47:58;;;;;;;10.05;3.00;;;;;;;;;;5008953;28;20113;-57
2023/04/29 07:50:25;;;;;;;8.15;3.08;;;;;;;;;;5007946;28;20041;-57
2023/04/29 07:52:54;;;;;;;9.88;3.10;;;;;;;;;;5010764;28;20404;-56
2023/04/29 07:55:20;;;;;;;14.43;3.13;;;;;;;;;;5009122;28;20042;-57
2023/04/29 07:57:47;;;;;;;13.55;2.97;;;;;;;;;;5008581;28;20056;-56
2023/04/29 08:00:14;;;;;;;10.95;2.67;;;;;;;;;;5023081;28;20092;-58
2023/04/29 08:02:41;;;;;;;12.30;2.50;;;;;;;;;;5008643;28;20046;-57
2023/04/29 08:05:08;;;;;;;6.88;2.25;;;;;;;;;;5007360;28;20129;-58
2023/04/29 08:07:34;;;;;;;7.38;2.70;;;;;;;;;;5008221;28;20045;-58
2023/04/29 08:10:01;;;;;;;12.10;3.40;;;;;;;;;;5009742;28;20057;-56
2023/04/29 08:12:28;;;;;;;12.32;3.40;;;;;;;;;;5009007;28;20049;-57
2023/04/29 08:14:54;;;;;;;10.88;3.10;;;;;;;;;;5008759;28;20033;-55
2023/04/29 08:17:21;;;;;;;16.40;3.90;;;;;;;;;;5024452;28;20057;-58
2023/04/29 08:19:48;;;;;;;10.70;3.42;;;;;;;;;;5011016;28;20053;-56
2023/04/29 08:22:15;;;;;;;9.82;3.47;;;;;;;;;;5011328;28;20120;-55
2023/04/29 08:24:41;;;;;;;12.77;3.08;;;;;;;;;;5008419;28;20045;-58
2023/04/29 08:27:08;;;;;;;11.52;3.45;;;;;;;;;;5008170;28;20049;-59
2023/04/29 08:29:35;;;;;;;11.27;3.10;;;;;;;;;;5006997;28;20052;-59
2023/04/29 08:32:02;;;;;;;12.43;3.45;;;;;;;;;;5010371;28;20341;-58
2023/04/29 08:34:28;;;;;;;10.88;3.40;;;;;;;;;;5006970;28;20042;-57
2023/04/29 08:36:57;;;;;;;12.85;3.28;;;;;;;;;;5009215;28;20044;-62
2023/04/29 08:39:24;;;;;;;5.35;2.67;;;;;;;;;;5008531;28;20077;-57
2023/04/29 08:41:52;;;;;;;14.50;3.15;;;;;;;;;;5025216;28;20167;-55
2023/04/29 08:44:19;;;;;;;11.35;2.95;;;;;;;;;;5023910;28;20044;-55
2023/04/29 08:46:45;;;;;;;10.93;3.10;;;;;;;;;;5024560;28;20048;-60
2023/04/29 08:49:12;;;;;;;9.00;2.92;;;;;;;;;;5025393;28;20044;-56
2023/04/29 08:51:39;;;;;;;12.45;2.67;;;;;;;;;;5024642;28;20040;-57
2023/04/29 08:54:06;;;;;;;14.73;3.10;;;;;;;;;;5024575;28;20044;-58
2023/04/29 08:56:33;;;;;;;9.45;3.28;;;;;;;;;;5025638;28;21426;-57
2023/04/29 08:59:03;;;;;;;6.30;2.70;;;;;;;;;;5024764;28;20052;-58
2023/04/29 09:01:30;;;;;;;9.57;3.33;;;;;;;;;;5023453;28;20033;-57
2023/04/29 09:04:09;;;;;;;12.95;3.10;;;;;;;;;;5024405;28;20069;-57
2023/04/29 09:06:37;;;;;;;11.05;3.28;;;;;;;;;;5024255;28;20041;-57
2023/04/29 09:09:03;;;;;;;14.75;3.40;;;;;;;;;;5023940;28;20049;-57
2023/04/29 09:11:31;;;;;;;12.55;3.60;;;;;;;;;;5024280;28;20539;-55
2023/04/29 09:14:01;;;;;;;12.77;3.95;;;;;;;;;;5024477;28;20140;-58
2023/04/29 09:16:28;;;;;;;14.68;3.72;;;;;;;;;;5024839;28;20447;-56
2023/04/29 09:18:55;;;;;;;11.10;3.15;;;;;;;;;;5019084;28;20050;-56
2023/04/29 09:21:26;;;;;;;13.32;2.92;;;;;;;;;;5006538;28;20495;-58
2023/04/29 09:23:54;;;;;;;7.80;2.95;;;;;;;;;;5008479;28;20041;-56
2023/04/29 09:26:21;;;;;;;12.95;2.90;;;;;;;;;;5006515;28;20132;-64
2023/04/29 09:29:05;;;;;;;9.95;3.00;;;;;;;;;;5008269;28;20045;-57
2023/04/29 09:31:32;;;;;;;21.75;3.40;;;;;;;;;;5021439;28;20045;-58
2023/04/29 09:33:59;;;;;;;18.20;3.90;;;;;;;;;;5021951;28;20380;-57
2023/04/29 09:36:37;;;;;;;15.77;3.70;;;;;;;;;;5006981;28;20037;-58
2023/04/29 09:39:10;;;;;;;16.10;5.05;;;;;;;;;;5008514;28;20049;-58
2023/04/29 09:41:40;;;;;;;13.25;5.28;;;;;;;;;;5006271;28;20173;-56
2023/04/29 09:44:08;;;;;;;20.13;5.75;;;;;;;;;;5007951;28;20037;-56
2023/04/29 09:46:35;;;;;;;23.10;7.72;;;;;;;;;;5022714;28;20042;-55
2023/04/29 09:49:22;;;;;;;28.65;9.80;;;;;;;;;;5008366;28;20045;-57
2023/04/29 09:51:53;;;;;;;18.48;6.30;;;;;;;;;;5007880;28;20086;-54
2023/04/29 09:54:21;;;;;;;17.80;5.10;;;;;;;;;;5007361;28;20041;-57
2023/04/29 09:56:49;;;;;;;14.25;4.63;;;;;;;;;;5006356;28;20042;-56
2023/04/29 09:59:16;;;;;;;15.02;4.80;;;;;;;;;;5009083;28;20875;-57
2023/04/29 10:01:43;;;;;;;10.55;4.00;;;;;;;;;;5004338;28;20154;-59
2023/04/29 10:04:11;;;;;;;17.92;4.32;;;;;;;;;;5007663;28;20038;-57
2023/04/29 10:06:41;;;;;;;8.52;3.80;;;;;;;;;;5007216;28;20050;-58
2023/04/29 10:09:08;;;;;;;10.65;4.10;;;;;;;;;;5008099;28;20507;-58
2023/04/29 10:11:36;;;;;;;8.88;3.15;;;;;;;;;;5006863;28;20156;-57
2023/04/29 10:14:04;;;;;;;14.15;3.15;;;;;;;;;;5008152;28;20100;-56
2023/04/29 10:16:34;;;;;;;10.13;3.00;;;;;;;;;;5021992;28;20518;-54
2023/04/29 10:19:05;;;;;;;8.27;2.78;;;;;;;;;;5008046;28;20478;-56
2023/04/29 10:21:32;;;;;;;8.90;2.85;;;;;;;;;;5005824;28;20052;-58
2023/04/29 10:23:59;;;;;;;10.25;2.75;;;;;;;;;;5006534;28;20038;-55
2023/04/29 10:26:27;;;;;;;8.05;2.85;;;;;;;;;;5007136;28;20037;-58
2023/04/29 10:29:01;;;;;;;7.78;2.80;;;;;;;;;;5007329;28;20121;-57
2023/04/29 10:31:28;;;;;;;8.63;3.00;;;;;;;;;;5005511;28;20073;-58
2023/04/29 10:34:00;;;;;;;10.65;3.15;;;;;;;;;;5006293;28;20474;-58
2023/04/29 10:36:29;;;;;;;7.70;2.60;;;;;;;;;;5005493;28;20041;-57
2023/04/29 10:38:58;;;;;;;8.73;3.03;;;;;;;;;;5006646;28;20638;-58
2023/04/29 10:41:30;;;;;;;8.93;2.85;;;;;;;;;;5005307;28;20148;-58
2023/04/29 10:43:58;;;;;;;16.35;3.03;;;;;;;;;;5006019;28;20038;-57
2023/04/29 10:46:26;;;;;;;7.38;2.60;;;;;;;;;;5018375;28;20050;-58
2023/04/29 10:49:02;;;;;;;10.85;2.70;;;;;;;;;;5006105;28;20072;-55
2023/04/29 10:51:33;;;;;;;7.72;2.53;;;;;;;;;;5005623;28;20120;-57
2023/04/29 10:54:01;;;;;;;8.63;2.20;;;;;;;;;;5020492;28;20030;-57
2023/04/29 10:56:41;;;;;;;9.48;2.50;;;;;;;;;;5006852;28;20096;-59
2023/04/29 10:59:13;;;;;;;7.70;2.70;;;;;;;;;;5007638;28;20026;-57
2023/04/29 11:01:49;;;;;;;8.35;2.40;;;;;;;;;;5006474;28;20116;-58
2023/04/29 11:04:17;;;;;;;7.07;2.65;;;;;;;;;;5008122;28;20029;-58
2023/04/29 11:06:46;;;;;;;7.07;2.10;;;;;;;;;;5005744;28;20414;-60
2023/04/29 11:09:14;;;;;;;6.65;2.40;;;;;;;;;;5007136;28;20046;-57
2023/04/29 11:11:42;;;;;;;6.93;2.50;;;;;;;;;;5005130;28;20076;-59
2023/04/29 11:14:11;;;;;;;7.82;2.38;;;;;;;;;;5006711;28;20495;-58
2023/04/29 11:16:47;;;;;;;6.85;1.90;;;;;;;;;;5006252;28;20042;-59
2023/04/29 11:19:15;;;;;;;9.13;2.25;;;;;;;;;;5010711;28;20459;-57
2023/04/29 11:21:42;;;;;;;7.18;2.50;;;;;;;;;;5009587;28;20041;-57
2023/04/29 11:24:08;;;;;;;4.78;1.95;;;;;;;;;;5009025;28;20038;-58
2023/04/29 11:26:36;;;;;;;7.25;2.20;;;;;;;;;;5010330;28;20065;-56
2023/04/29 11:29:03;;;;;;;4.78;1.88;;;;;;;;;;5025138;28;20042;-58
2023/04/29 11:31:33;;;;;;;7.10;2.05;;;;;;;;;;5024152;28;20124;-57
2023/04/29 11:34:00;;;;;;;9.07;2.10;;;;;;;;;;5023844;28;20494;-55
2023/04/29 11:36:27;;;;;;;8.43;2.30;;;;;;;;;;5010261;28;20335;-57
2023/04/29 11:38:54;;;;;;;9.75;2.20;;;;;;;;;;5009788;28;20033;-57
2023/04/29 11:41:21;;;;;;;6.05;2.50;;;;;;;;;;5008962;28;20826;-60
2023/04/29 11:43:47;;;;;;;12.75;2.47;;;;;;;;;;5011152;28;20091;-57
2023/04/29 11:46:15;;;;;;;11.65;2.42;;;;;;;;;;5010929;28;20042;-55
2023/04/29 11:48:48;;;;;;;10.18;2.30;;;;;;;;;;5010471;28;20042;-59
2023/04/29 11:51:15;;;;;;;;;;;;;;;;;;5011324;28;20049;-58
2023/04/29 11:53:41;;;;;;;7.68;2.33;;;;;;;;;;5010394;28;19925;-55
2023/04/29 11:56:09;;;;;;;5.65;2.20;;;;;;;;;;5011177;28;20045;-57
2023/04/29 11:58:36;;;;;;;7.45;2.28;;;;;;;;;;5011830;28;20040;-60
2023/04/29 12:01:04;;;;;;;5.38;2.00;;;;;;;;;;5018758;28;20208;-58
2023/04/29 12:03:32;;;;;;;8.70;2.20;;;;;;;;;;5020504;28;20045;-57
2023/04/29 12:05:59;;;;;;;6.35;2.03;;;;;;;;;;5011669;28;21433;-57
2023/04/29 12:08:27;;;;;;;8.85;2.22;;;;;;;;;;5013028;28;20108;-57
2023/04/29 12:10:58;;;;;;;8.02;2.38;;;;;;;;;;5011016;28;20049;-57
2023/04/29 12:13:26;;;;;;;9.80;2.63;;;;;;;;;;5008402;28;20433;-60
2023/04/29 12:15:53;;;;;;;10.95;2.35;;;;;;;;;;5026560;28;20034;-59
2023/04/29 12:18:22;;;;;;;10.32;2.33;;;;;;;;;;5010651;28;20103;-61
2023/04/29 12:20:53;;;;;;;5.68;1.88;;;;;;;;;;5010074;28;20572;-59
2023/04/29 12:23:22;;;;;;;8.38;2.30;;;;;;;;;;5025348;28;20038;-60
2023/04/29 12:25:59;;;;;;;10.07;2.45;;;;;;;;;;5011996;28;20042;-58
2023/04/29 12:28:26;;;;;;;12.38;2.65;;;;;;;;;;5008890;28;20145;-61
2023/04/29 12:30:53;;;;;;;12.70;2.42;;;;;;;;;;5011702;28;20076;-62
2023/04/29 12:33:21;;;;;;;6.65;2.05;;;;;;;;;;5012561;28;20037;-60
2023/04/29 12:35:51;;;;;;;12.57;2.22;;;;;;;;;;5010316;28;20064;-59
2023/04/29 12:38:21;;;;;;;11.05;2.50;;;;;;;;;;5008930;28;20091;-59
2023/04/29 12:40:49;;;;;;;7.65;2.22;;;;;;;;;;5005940;28;20053;-58
2023/04/29 12:43:16;;;;;;;14.32;2.47;;;;;;;;;;5006749;28;20124;-58
2023/04/29 12:45:43;;;;;;;9.20;2.58;;;;;;;;;;5007051;28;20037;-60
2023/04/29 12:48:11;;;;;;;10.13;2.17;;;;;;;;;;5010707;28;20667;-61
2023/04/29 12:50:38;;;;;;;8.68;2.85;;;;;;;;;;5022311;28;20061;-60
2023/04/29 12:53:06;;;;;;;5.97;1.90;;;;;;;;;;5009559;28;20030;-59
2023/04/29 12:55:35;;;;;;;10.68;2.17;;;;;;;;;;5038291;28;20120;-58
2023/04/29 12:58:02;;;;;;;9.57;2.15;;;;;;;;;;5012511;28;20072;-59
2023/04/29 13:00:29;;;;;;;10.13;2.08;;;;;;;;;;5010694;28;20048;-58
2023/04/29 13:02:56;;;;;;;7.60;1.75;;;;;;;;;;5009986;28;20541;-57
2023/04/29 13:05:23;;;;;;;6.55;1.48;;;;;;;;;;5023742;28;20042;-57
2023/04/29 13:07:50;;;;;;;6.13;1.95;;;;;;;;;;5009838;28;20064;-56
2023/04/29 13:10:17;;;;;;;9.05;1.85;;;;;;;;;;5024419;28;20057;-59
2023/04/29 13:12:44;;;;;;;4.38;1.80;;;;;;;;;;5008322;28;20059;-59
2023/04/29 13:15:11;;;;;;;6.25;1.65;;;;;;;;;;5023742;28;20033;-62
2023/04/29 13:17:38;;;;;;;6.30;1.70;;;;;;;;;;5023766;28;20048;-59
2023/04/29 13:20:05;;;;;;;7.10;1.55;;;;;;;;;;5009165;28;20068;-58
2023/04/29 13:22:32;;;;;;;7.25;1.80;;;;;;;;;;5009175;28;20037;-57
2023/04/29 13:24:59;;;;;;;5.10;1.42;;;;;;;;;;5007656;28;20064;-60
2023/04/29 13:27:26;;;;;;;4.90;1.85;;;;;;;;;;5010937;28;20127;-61
2023/04/29 13:29:53;;;;;;;5.78;1.80;;;;;;;;;;5011036;28;20046;-58
2023/04/29 13:32:22;;;;;;;9.38;2.13;;;;;;;;;;5016947;28;20034;-58
2023/04/29 13:34:51;;;;;;;9.50;2.00;;;;;;;;;;5016170;28;20326;-57
2023/04/29 13:37:21;;;;;;;9.85;1.75;;;;;;;;;;5009557;28;20514;-58
2023/04/29 13:39:48;;;;;;;8.82;1.95;;;;;;;;;;5008898;28;20458;-60
2023/04/29 13:42:14;;;;;;;9.60;2.00;;;;;;;;;;5008089;28;20038;-60
2023/04/29 13:44:44;;;;;;;6.25;2.00;;;;;;;;;;5007634;28;20096;-57
2023/04/29 13:47:12;;;;;;;4.35;1.80;;;;;;;;;;5009600;28;20046;-59
2023/04/29 13:49:44;;;;;;;5.10;1.77;;;;;;;;;;5009981;28;20026;-58
2023/04/29 13:52:11;;;;;;;5.90;1.70;;;;;;;;;;5007060;28;20105;-60
2023/04/29 13:54:39;;;;;;;10.55;1.77;;;;;;;;;;5006608;28;20087;-57
2023/04/29 13:57:06;;;;;;;4.57;1.60;;;;;;;;;;5009189;28;20651;-58
2023/04/29 13:59:33;;;;;;;4.82;1.83;;;;;;;;;;5006386;28;20069;-59
2023/04/29 14:01:59;;;;;;;7.18;1.60;;;;;;;;;;5008056;28;20047;-60
2023/04/29 14:04:26;;;;;;;8.00;2.15;;;;;;;;;;5005824;28;20050;-58
2023/04/29 14:06:54;;;;;;;6.18;1.58;;;;;;;;;;5008274;28;20123;-58
2023/04/29 14:09:21;;;;;;;3.67;1.38;;;;;;;;;;5009950;28;21412;-59
2023/04/29 14:11:48;;;;;;;7.22;1.73;;;;;;;;;;5008117;28;20119;-60
2023/04/29 14:14:15;;;;;;;9.95;1.48;;;;;;;;;;5006294;28;20056;-59
2023/04/29 14:16:42;;;;;;;7.57;1.67;;;;;;;;;;5007642;28;20042;-60
2023/04/29 14:19:09;;;;;;;8.20;1.70;;;;;;;;;;5010063;28;20046;-62
2023/04/29 14:21:35;;;;;;;7.47;1.65;;;;;;;;;;5006968;28;20044;-60
2023/04/29 14:24:03;;;;;;;5.00;1.52;;;;;;;;;;5009253;28;20136;-58
2023/04/29 14:26:30;;;;;;;10.15;1.50;;;;;;;;;;5010099;28;20038;-60
2023/04/29 14:28:58;;;;;;;8.02;1.63;;;;;;;;;;5009383;28;20871;-59
2023/04/29 14:31:26;;;;;;;9.30;1.60;;;;;;;;;;5007809;28;20050;-59
2023/04/29 14:33:53;;;;;;;5.97;1.40;;;;;;;;;;5008334;28;20049;-59
2023/04/29 14:36:20;;;;;;;4.97;1.33;;;;;;;;;;5021841;28;20041;-60
2023/04/29 14:38:47;;;;;;;6.95;1.50;;;;;;;;;;5009187;28;20088;-59
2023/04/29 14:41:14;;;;;;;7.07;1.50;;;;;;;;;;5009232;28;20518;-59
2023/04/29 14:43:41;;;;;;;4.15;1.25;;;;;;;;;;5007683;28;21495;-60